ADDS METAR Data INFO
IDs: Format: Raw Decoded Include TAF

Data at: 0403 UTC 19 Jul 2018

KM21 190355Z AUTO 00000KT 10SM CLR 20/20 A3000 RMK AO2 T01970197
KM21 190335Z AUTO 00000KT 10SM CLR 20/20 A3000 RMK AO2 T02010195
KM21 190315Z AUTO 00000KT 10SM CLR 21/19 A2999 RMK AO2 T02070185
KM21 190255Z AUTO 00000KT 10SM CLR 22/19 A2999 RMK AO2 T02150186
KM21 190235Z AUTO 00000KT 10SM CLR 22/19 A2999 RMK AO2 T02160192
KM21 190215Z AUTO 00000KT 10SM CLR 22/19 A2999 RMK AO2 T02200187
KM21 190155Z AUTO 00000KT 10SM CLR 23/18 A2998 RMK AO2 T02300183
KM21 190135Z AUTO 00000KT 10SM CLR 24/18 A2997 RMK AO2 T02350182
KM21 190115Z AUTO 00000KT 10SM CLR 24/18 A2997 RMK AO2 T02410181
KM21 190055Z AUTO 00000KT 10SM CLR 25/18 A2997 RMK AO2 T02500184
KM21 190035Z AUTO 00000KT 10SM CLR 26/18 A2997 RMK AO2 T02600177
KM21 190015Z AUTO 00000KT 10SM CLR 27/17 A2997 RMK AO2 T02670170
KM21 182355Z AUTO 00000KT 10SM CLR 28/17 A2997 RMK AO2 T02770169 10295 20277
KM21 182335Z AUTO 35003KT 10SM CLR 28/17 A2997 RMK AO2 T02810168
KM21 182315Z AUTO 35004KT 10SM CLR 28/17 A2997 RMK AO2 T02810168
KM21 182255Z AUTO 34005KT 10SM CLR 28/17 A2998 RMK AO2 T02830166
KM21 182235Z AUTO 34006KT 10SM CLR 28/17 A2998 RMK AO2 T02840166
KM21 182215Z AUTO 33008KT 10SM CLR 29/17 A2998 RMK AO2 T02850165
KM21 182155Z AUTO 34004KT 10SM CLR 29/17 A2998 RMK AO2 T02890167
KM21 182135Z AUTO 01004KT 10SM CLR 29/16 A2999 RMK AO2 T02910160
KM21 182115Z AUTO 08003KT 10SM CLR 29/16 A2999 RMK AO2 T02900162
KM21 182055Z AUTO 03006KT 10SM CLR 29/15 A2999 RMK AO2 T02920152
KM21 182035Z AUTO 06006KT 10SM CLR 29/15 A3000 RMK AO2 T02920149
KM21 182015Z AUTO 00000KT 10SM CLR 30/14 A3000 RMK AO2 T02950138
KM21 181955Z AUTO 02004KT 10SM SCT050 29/15 A3001 RMK AO2 T02920149
KM21 181935Z AUTO 02007KT 320V060 10SM CLR 29/17 A3002 RMK AO2 T02910167
KM21 181915Z AUTO 05005KT 10SM CLR 29/17 A3003 RMK AO2 T02930168
KM21 181855Z AUTO 03005KT 10SM CLR 29/17 A3003 RMK AO2 T02880167
KM21 181835Z AUTO 36005KT 10SM CLR 29/17 A3004 RMK AO2 T02900172
KM21 181815Z AUTO 06004KT 10SM CLR 29/17 A3004 RMK AO2 T02880168
KM21 181755Z AUTO 35005KT 10SM CLR 29/18 A3004 RMK AO2 T02880176 10288 20206
KM21 181735Z AUTO 01004KT 10SM CLR 29/18 A3004 RMK AO2 T02870176
KM21 181715Z AUTO 04004KT 10SM CLR 28/18 A3005 RMK AO2 T02820175
KM21 181655Z AUTO 07004KT 10SM CLR 27/17 A3005 RMK AO2 T02710172
KM21 181635Z AUTO 06003KT 10SM CLR 27/17 A3005 RMK AO2 T02740170
KM21 181615Z AUTO 10005KT 10SM CLR 28/16 A3005 RMK AO2 T02800164
KM21 181555Z AUTO 10004KT 10SM CLR 28/17 A3005 RMK AO2 T02750174
KM21 181535Z AUTO 05003KT 10SM CLR 27/17 A3006 RMK AO2 T02700174
KM21 181515Z AUTO 06005KT 10SM CLR 27/18 A3006 RMK AO2 T02650179
KM21 181455Z AUTO 06004KT 10SM CLR 26/18 A3006 RMK AO2 T02600177
KM21 181435Z AUTO 04004KT 10SM CLR 25/18 A3006 RMK AO2 T02510177
KM21 181415Z AUTO 07004KT 10SM CLR 25/18 A3006 RMK AO2 T02500177
KM21 181355Z AUTO 04003KT 10SM CLR 24/18 A3006 RMK AO2 T02400175
KM21 181335Z AUTO 07004KT 10SM CLR 24/17 A3006 RMK AO2 T02350172
KM21 181315Z AUTO 07005KT 10SM CLR 23/17 A3006 RMK AO2 T02300171
KM21 181255Z AUTO 06004KT 10SM CLR 23/17 A3006 RMK AO2 T02250172
KM21 181235Z AUTO 05004KT 10SM CLR 22/18 A3005 RMK AO2 T02190181
KM21 181215Z AUTO 00000KT 10SM CLR 21/18 A3006 RMK AO2 T02120183
KM21 181155Z AUTO 00000KT 10SM CLR 21/19 A3005 RMK AO2 T02050188 10208 20185
KM21 181135Z AUTO 00000KT 10SM CLR 20/20 A3005 RMK AO2 T01970195
KM21 181115Z AUTO 00000KT 10SM CLR 19/19 A3005 RMK AO2 T01870187
KM21 181055Z AUTO 00000KT 10SM CLR 20/20 A3004 RMK AO2 T01950195
KM21 181035Z AUTO 00000KT 10SM CLR 19/19 A3004 RMK AO2 T01910191
KM21 181015Z AUTO 00000KT 10SM CLR 19/19 A3003 RMK AO2 T01880188
KM21 180955Z AUTO 00000KT 10SM CLR 19/19 A3003 RMK AO2 T01850185
KM21 180935Z AUTO 00000KT 10SM CLR 19/19 A3003 RMK AO2 T01910191
KM21 180915Z AUTO 00000KT 5SM BR CLR 19/19 A3002 RMK AO2 T01870187
KM21 180855Z AUTO 00000KT 2 1/2SM BR CLR 19/19 A3002 RMK AO2 VIS 1V5 T01880188
KM21 180835Z AUTO 00000KT 10SM CLR 19/19 A3002 RMK AO2 T01910191
KM21 180815Z AUTO 00000KT 10SM CLR 20/20 A3002 RMK AO2 T01960196
KM21 180755Z AUTO 00000KT 7SM CLR 20/20 A3002 RMK AO2 T01960196
KM21 180735Z AUTO 00000KT 7SM CLR 20/20 A3002 RMK AO2 T01970197
KM21 180715Z AUTO 00000KT 7SM CLR 20/20 A3002 RMK AO2 T01950195
KM21 180655Z AUTO 00000KT 10SM CLR 20/20 A3002 RMK AO2 T02000200
KM21 180635Z AUTO 00000KT 5SM BR CLR 20/20 A3002 RMK AO2 T02000200
KM21 180615Z AUTO 00000KT 10SM CLR 21/21 A3003 RMK AO2 T02060206
KM21 180555Z AUTO 00000KT 10SM CLR 21/21 A3003 RMK AO2 T02090209 10285 20209 403160207
KM21 180535Z AUTO 00000KT 10SM CLR 21/21 A3002 RMK AO2 T02130213
KM21 180515Z AUTO 00000KT 10SM CLR 22/22 A3003 RMK AO2 T02150215
KM21 180455Z AUTO 00000KT 10SM CLR 22/22 A3003 RMK AO2 T02180218
KM21 180435Z AUTO 00000KT 10SM CLR 22/22 A3003 RMK AO2 T02170217
KM21 180415Z AUTO 00000KT 10SM CLR 22/22 A3003 RMK AO2 T02200220
KM21 180355Z AUTO 00000KT 10SM CLR 23/23 A3003 RMK AO2 T02250225
KM21 180335Z AUTO 00000KT 10SM CLR 23/23 A3002 RMK AO2 T02270225
KM21 180315Z AUTO 00000KT 10SM CLR 23/22 A3002 RMK AO2 T02290223
KM21 180255Z AUTO 00000KT 10SM CLR 23/23 A3002 RMK AO2 T02270225
KM21 180235Z AUTO 00000KT 10SM CLR 23/21 A3002 RMK AO2 T02340210
KM21 180215Z AUTO 00000KT 10SM CLR 25/21 A3001 RMK AO2 T02450206
KM21 180155Z AUTO 00000KT 10SM CLR 25/21 A3001 RMK AO2 T02460206
KM21 180135Z AUTO 33003KT 10SM CLR 25/21 A3000 RMK AO2 T02480212
KM21 180115Z AUTO 00000KT 10SM CLR 26/20 A3000 RMK AO2 T02620202
KM21 180055Z AUTO 00000KT 10SM CLR 27/20 A3000 RMK AO2 T02660202
KM21 180035Z AUTO 00000KT 10SM CLR 28/20 A2999 RMK AO2 T02750202
KM21 180015Z AUTO 36005KT 10SM CLR 28/21 A2998 RMK AO2 T02820205
KM21 172355Z AUTO 36004KT 10SM CLR 29/21 A2998 RMK AO2 T02850208 10316 20282
KM21 172335Z AUTO 35004KT 10SM CLR 28/21 A2997 RMK AO2 T02840213
KM21 172315Z AUTO 35005KT 10SM CLR 29/22 A2996 RMK AO2 T02880215
KM21 172255Z AUTO 35005KT 10SM CLR 29/22 A2996 RMK AO2 T02940216
KM21 172235Z AUTO 36006KT 10SM CLR 30/21 A2996 RMK AO2 T02960211
KM21 172215Z AUTO 01006KT 10SM CLR 31/21 A2996 RMK AO2 T03050209
KM21 172155Z AUTO 35006KT 10SM SCT038 30/22 A2996 RMK AO2 T03040219
KM21 172135Z AUTO 36007KT 10SM CLR 30/21 A2997 RMK AO2 T03040214
KM21 172115Z AUTO 36006KT 10SM CLR 31/21 A2997 RMK AO2 T03060214
KM21 172055Z AUTO 35010G14KT 10SM SCT037 SCT045 31/22 A2998 RMK AO2 T03080223
KM21 172035Z AUTO 36010KT 10SM SCT037 SCT043 SCT050 31/23 A2997 RMK AO2 T03130227
KM21 172015Z AUTO 33007KT 10SM SCT035 SCT044 31/22 A2998 RMK AO2 T03140224
KM21 171955Z AUTO 33007KT 10SM SCT037 SCT050 31/23 A2998 RMK AO2 T03070227
KM21 171935Z AUTO 33007KT 10SM SCT037 SCT060 BKN070 31/23 A2998 RMK AO2 T03120226
KM21 171915Z AUTO 36007KT 10SM SCT060 SCT070 31/23 A2999 RMK AO2 T03140228
KM21 171855Z AUTO 33006KT 10SM SCT039 31/23 A2999 RMK AO2 T03130227
KM21 171835Z AUTO 32004KT 10SM SCT039 SCT044 31/22 A2999 RMK AO2 T03120220
KM21 171815Z AUTO 32003KT 10SM SCT039 SCT044 31/23 A2999 RMK AO2 T03080225
KM21 171755Z AUTO 33004KT 10SM SCT039 31/22 A2999 RMK AO2 T03070221 10310 20225
KM21 171735Z AUTO 03003KT 10SM SCT036 31/22 A3000 RMK AO2 T03060216
KM21 171715Z AUTO 34005KT 10SM SCT034 30/22 A3000 RMK AO2 T03000222
KM21 171655Z AUTO 35005KT 10SM SCT032 SCT040 SCT050 30/22 A3001 RMK AO2 T03010223
KM21 171635Z AUTO 32006KT 10SM SCT032 BKN037 30/22 A3001 RMK AO2 T02980220
KM21 171615Z AUTO 01005KT 10SM SCT030 30/23 A3001 RMK AO2 T03010227